Flight Track Log - Related Links

Times and Time Zones

All times are in EDT time to prevent confusion due to time zone crossing. See the DAL1032 flight status page for this flight to view local times or setup timezone preferences in your user account.

Time Position Orientation Groundspeed Altitude Reporting Facility
EDT Latitude Longitude Course Direction KTS MPH feet Rate Location/Type
Sun 11:23:26 AM 43.6342 -110.7247 85° East 157 181 7,700  Level Salt Lake Center
Sun 11:24:28 AM 43.6756 -110.6975 25° Northeast 183 211 9,400 1,452 Climbing Salt Lake Center
Sun 11:25:30 AM 43.7158 -110.6569 36° Northeast 186 214 10,700 1,403 Climbing Salt Lake Center
Sun 11:26:00 AM 43.8334 -110.0916 90° East  Level FlightAware Approximate
Sun 11:26:32 AM 43.7725 -110.6119 30° Northeast 219 252 12,300  Level Salt Lake Center
Sun 11:27:00 AM 43.8414 -109.9209 84° East  Level FlightAware Approximate
Sun 11:27:34 AM 43.8303 -110.5414 41° Northeast 293 337 13,800  Level Salt Lake Center
Sun 11:28:00 AM 43.8530 -109.7502 85° East  Level FlightAware Approximate
Sun 11:28:36 AM 43.8597 -110.3789 76° East 362 417 15,400  Level Salt Lake Center
Sun 11:29:38 AM 43.8867 -110.2219 77° East 414 476 17,600 1,984 Climbing Salt Lake Center
Sun 11:30:40 AM 43.9164 -110.0658 75° East 420 483 19,500 2,081 Climbing Salt Lake Center
Sun 11:31:42 AM 43.9478 -109.8933 76° East 429 494 21,900 1,984 Climbing Salt Lake Center
Sun 11:32:44 AM 43.9742 -109.7369 77° East 434 499 23,600 1,742 Climbing Salt Lake Center
Sun 11:33:46 AM 44.0086 -109.5408 76° East 462 532 25,500 1,645 Climbing Salt Lake Center
Sun 11:34:48 AM 44.0397 -109.3600 76° East 461 531 27,000 1,306 Climbing Salt Lake Center
Sun 11:35:50 AM 44.0719 -109.1786 76° East 480 552 28,200 1,200 Climbing Salt Lake Center
Sun 11:36:53 AM 44.1028 -108.9922 77° East 495 570 29,500 1,200 Climbing Salt Lake Center
Sun 11:37:55 AM 44.1339 -108.8047 77° East 499 574 30,700 1,306 Climbing Salt Lake Center
Sun 11:38:57 AM 44.1647 -108.6181 77° East 499 574 32,200 1,403 Climbing Salt Lake Center
Sun 11:39:59 AM 44.2008 -108.3953 77° East 495 570 33,600 1,161 Climbing Salt Lake Center
Sun 11:41:01 AM 44.2306 -108.2089 77° East 496 571 34,600 1,016 Climbing Salt Lake Center
Sun 11:42:03 AM 44.2608 -108.0225 77° East 497 572 35,700 968 Climbing Salt Lake Center
Sun 11:43:05 AM 44.2900 -107.8367 78° East 496 571 36,600 629 Climbing Salt Lake Center
Sun 11:44:07 AM 44.3192 -107.6517 78° East 494 568 37,000 194 Climbing Salt Lake Center
Sun 11:45:09 AM 44.3528 -107.4311 78° East 491 565 37,000  Level Salt Lake Center
Sun 11:46:11 AM 44.3811 -107.2436 78° East 497 572 37,000  Level Salt Lake Center
Sun 11:47:13 AM 44.4094 -107.0550 78° East 500 575 37,000  Level Salt Lake Center
Sun 11:48:15 AM 44.4389 -106.8672 78° East 499 574 37,000  Level Salt Lake Center
Sun 11:49:17 AM 44.4667 -106.6786 78° East 499 574 37,000  Level Salt Lake Center
Sun 11:50:19 AM 44.4956 -106.4903 78° East 498 573 37,000  Level Salt Lake Center
Sun 11:51:21 AM 44.5267 -106.2653 79° East 494 568 37,000  Level Salt Lake Center
Sun 11:52:23 AM 44.5544 -106.0750 78° East 494 568 37,000  Level Salt Lake Center
Sun 11:53:25 AM 44.5800 -105.8925 79° East 497 572 37,000  Level Salt Lake Center
Sun 11:54:27 AM 44.6094 -105.6808 79° East 495 570 37,000  Level Salt Lake Center
Sun 11:55:29 AM 44.6328 -105.5000 80° East 492 566 37,000  Level Salt Lake Center
Sun 11:56:31 AM 44.6619 -105.2922 79° East 488 562 37,000  Level Salt Lake Center
Sun 11:57:33 AM 44.6858 -105.1158 79° East 482 555 37,000  Level Salt Lake Center
Sun 11:58:35 AM 44.7097 -104.9203 80° East 481 554 37,000  Level Salt Lake Center
Sun 11:59:37 AM 44.7336 -104.7367 80° East 480 552 37,000  Level Salt Lake Center
Sun 12:00:39 PM 44.7500 -104.5542 83° East 478 550 37,000  Level Salt Lake Center
Sun 12:01:41 PM 44.7514 -104.3447 89° East 479 551 37,000  Level Salt Lake Center
Sun 12:03:01 PM 44.7531 -104.1072 89° East 479 551 37,000  Level Denver Center
Sun 12:04:03 PM 44.7536 -103.9572 90° East 479 551 37,000  Level Denver Center
Sun 12:05:06 PM 44.7547 -103.7169 90° East 480 552 37,000  Level Denver Center
Sun 12:06:08 PM 44.7556 -103.5172 90° East 482 555 37,000  Level Denver Center
Sun 12:07:10 PM 44.7558 -103.3311 90° East 479 551 37,000  Level Denver Center
Sun 12:08:12 PM 44.7556 -103.1425 90° East 480 552 37,000  Level Denver Center
Sun 12:09:04 PM 44.7478 -102.9544 93° East 481 554 37,000  Level Minneapolis Center
Sun 12:10:06 PM 44.7486 -102.7678 90° East 481 554 37,000  Level Minneapolis Center
Sun 12:11:08 PM 44.7478 -102.5803 90° East 480 552 37,000  Level Minneapolis Center
Sun 12:12:20 PM 44.7517 -102.3569 89° East 479 551 37,000  Level Denver Center
Sun 12:13:22 PM 44.7511 -102.1703 90° East 478 550 37,000  Level Denver Center
Sun 12:14:14 PM 44.7450 -102.0214 93° East 477 549 37,000  Level Minneapolis Center
Sun 12:15:16 PM 44.7433 -101.7989 91° East 476 548 37,000  Level Minneapolis Center
Sun 12:16:18 PM 44.7414 -101.6136 91° East 475 547 37,000  Level Minneapolis Center
Sun 12:17:20 PM 44.7408 -101.4269 90° East 477 549 37,000  Level Minneapolis Center
Sun 12:18:22 PM 44.7358 -101.2428 92° East 476 548 37,000  Level Minneapolis Center
Sun 12:19:24 PM 44.7328 -101.0608 91° East 472 543 37,000  Level Minneapolis Center
Sun 12:20:26 PM 44.7297 -100.8789 91° East 469 540 37,000  Level Minneapolis Center
Sun 12:21:28 PM 44.7247 -100.6600 92° East 469 540 37,000  Level Minneapolis Center
Sun 12:22:31 PM 44.7211 -100.4783 92° East 468 539 37,000  Level Minneapolis Center
Sun 12:23:33 PM 44.7164 -100.2981 92° East 467 537 37,000  Level Minneapolis Center
Sun 12:24:34 PM 44.7125 -100.1536 92° East 467 537 37,000  Level Minneapolis Center
Sun 12:25:37 PM 44.7064 -99.9381 92° East 466 536 37,000  Level Minneapolis Center
Sun 12:26:39 PM 44.7008 -99.7200 92° East 469 540 37,000  Level Minneapolis Center
Sun 12:27:41 PM 44.6956 -99.5375 92° East 471 542 37,000  Level Minneapolis Center
Sun 12:28:43 PM 44.6900 -99.3539 92° East 472 543 37,000  Level Minneapolis Center
Sun 12:29:45 PM 44.6842 -99.1706 92° East 473 544 37,000  Level Minneapolis Center
Sun 12:30:47 PM 44.6781 -98.9878 93° East 471 542 37,000  Level Minneapolis Center
Sun 12:31:49 PM 44.6694 -98.7669 93° East 474 545 37,000  Level Minneapolis Center
Sun 12:32:51 PM 44.6614 -98.5817 93° East 476 548 37,000  Level Minneapolis Center
Sun 12:33:53 PM 44.6536 -98.3919 93° East 484 557 37,000  Level Minneapolis Center
Sun 12:34:55 PM 44.6456 -98.1997 93° East 489 563 37,000  Level Minneapolis Center
Sun 12:35:57 PM 44.6369 -98.0100 94° East 489 563 37,000  Level Minneapolis Center
Sun 12:37:00 PM 44.6286 -97.8203 93° East 489 563 37,000  Level Minneapolis Center
Sun 12:38:02 PM 44.6167 -97.5936 94° East 487 560 37,000  Level Minneapolis Center
Sun 12:39:04 PM 44.6058 -97.4053 95° East 486 559 37,000  Level Minneapolis Center
Sun 12:40:06 PM 44.5956 -97.2125 94° East 493 567 37,000  Level Minneapolis Center
Sun 12:41:08 PM 44.5869 -97.0206 94° East 494 568 37,000  Level Minneapolis Center
Sun 12:42:10 PM 44.5761 -96.8400 95° East 468 539 37,000  Level Minneapolis Center
Sun 12:43:25 PM 44.5642 -96.6319 95° East 448 516 37,000  Level Minneapolis Center
Sun 12:44:27 PM 44.5542 -96.4558 94° East 453 521 37,000 -387 Level Minneapolis Center
Sun 12:45:29 PM 44.5422 -96.2442 94° East 454 522 36,200 -1,694 Descending Minneapolis Center
Sun 12:46:31 PM 44.5306 -96.0631 95° East 462 532 33,500 -2,226 Descending Minneapolis Center
Sun 12:47:33 PM 44.5197 -95.8856 95° East 457 526 31,600 -1,839 Descending Minneapolis Center
Sun 12:48:35 PM 44.5083 -95.7150 95° East 442 509 29,700 -1,839 Descending Minneapolis Center
Sun 12:49:37 PM 44.4975 -95.5522 95° East 424 488 27,800 -1,742 Descending Minneapolis Center
Sun 12:50:39 PM 44.4869 -95.3950 95° East 410 472 26,100 -1,645 Descending Minneapolis Center
Sun 12:51:41 PM 44.4761 -95.2436 96° East 395 455 24,400 -1,790 Descending Minneapolis Center
Sun 12:52:43 PM 44.4792 -95.0733 88° East 372 428 22,400 -1,742 Descending Minneapolis Center
Sun 12:53:45 PM 44.5128 -94.9431 70° East 358 412 20,800 -1,839 Descending Minneapolis Center
Sun 12:54:47 PM 44.5419 -94.8122 73° East 353 406 18,600 -1,839 Descending Minneapolis Center
Sun 12:55:49 PM 44.5728 -94.6814 72° East 355 409 17,000 -2,129 Descending Minneapolis Center
Sun 12:56:51 PM 44.6058 -94.5406 72° East 351 404 14,200 -2,118 Descending Minneapolis Center
Sun 12:58:05 PM 44.6364 -94.4056 72° East 360 414 12,200 -1,401 Descending Minneapolis Center
Sun 12:59:08 PM 44.6714 -94.2525 72° East 340 391 11,000 -576 Descending Minneapolis Center
Sun 01:00:10 PM 44.6981 -94.1367 72° East 314 361 11,000 -387 Level Minneapolis Center
Sun 01:01:12 PM 44.7236 -94.0194 73° East 314 361 10,200 -823 Descending Minneapolis Center
Sun 01:02:14 PM 44.7531 -93.8911 72° East 282 325 9,300 -1,016 Descending Minneapolis Center
Sun 01:03:16 PM 44.8117 -93.8411 31° Northeast 253 291 8,100 -968 Descending Minneapolis Center
Sun 01:04:18 PM 44.8742 -93.8036 23° Northeast 244 281 7,300 -532 Descending Minneapolis Center
Sun 01:05:20 PM 44.9342 -93.8003 North 218 251 7,000 -145 Descending Minneapolis Center
Sun 01:06:22 PM 44.9886 -93.7753 18° North 214 246 7,000 -240 Level Minneapolis Center
Sun 01:07:25 PM 45.0192 -93.7142 55° Northeast 207 238 6,500 -816 Descending Minneapolis Center
Sun 01:08:27 PM 45.0189 -93.6258 90° East 189 217 5,300 -726 Descending Minneapolis Center
Sun 01:09:29 PM 45.0189 -93.5522 90° East 187 215 5,000 -194 Descending Minneapolis Center
Sun 01:10:31 PM 44.9975 -93.4881 115° Southeast 183 211 4,900 -532 Descending Minneapolis Center
Sun 01:11:33 PM 44.9717 -93.4283 121° Southeast 177 204 3,900 -968 Descending Minneapolis Center

Login

Don't have an account? Register now (free) for customized features, flight alerts, and more!